sensor_id;sensor_type;location;lat;lon;timestamp;pressure;altitude;pressure_sealevel;temperature;humidity
75188;BME280;63762;51.334;22.108;2023-04-03T00:02:50;101969.79;;;1.80;85.38
75188;BME280;63762;51.334;22.108;2023-04-03T00:12:51;101976.83;;;1.81;85.79
75188;BME280;63762;51.334;22.108;2023-04-03T00:22:52;101976.08;;;1.76;85.94
75188;BME280;63762;51.334;22.108;2023-04-03T00:32:54;101991.36;;;1.65;86.24
75188;BME280;63762;51.334;22.108;2023-04-03T00:43:01;101992.34;;;1.61;86.75
75188;BME280;63762;51.334;22.108;2023-04-03T00:53:13;101992.88;;;1.75;86.12
75188;BME280;63762;51.334;22.108;2023-04-03T01:03:15;101991.18;;;1.72;86.17
75188;BME280;63762;51.334;22.108;2023-04-03T01:13:28;101995.27;;;1.49;86.63
75188;BME280;63762;51.334;22.108;2023-04-03T01:33:45;102023.92;;;1.32;87.28
75188;BME280;63762;51.334;22.108;2023-04-03T01:43:48;102036.26;;;1.33;86.84
75188;BME280;63762;51.334;22.108;2023-04-03T01:53:50;102033.61;;;1.33;87.01
75188;BME280;63762;51.334;22.108;2023-04-03T02:03:57;102028.34;;;1.31;86.74
75188;BME280;63762;51.334;22.108;2023-04-03T02:14:05;102037.45;;;1.18;87.11
75188;BME280;63762;51.334;22.108;2023-04-03T02:24:12;102065.01;;;1.10;86.10
75188;BME280;63762;51.334;22.108;2023-04-03T02:34:19;102063.39;;;1.03;86.13
75188;BME280;63762;51.334;22.108;2023-04-03T02:44:26;102066.04;;;1.03;85.18
75188;BME280;63762;51.334;22.108;2023-04-03T02:54:33;102067.20;;;0.88;84.46
75188;BME280;63762;51.334;22.108;2023-04-03T03:04:40;102076.99;;;0.83;83.77
75188;BME280;63762;51.334;22.108;2023-04-03T03:14:48;102086.69;;;0.86;82.27
75188;BME280;63762;51.334;22.108;2023-04-03T03:24:55;102090.38;;;0.76;80.91
75188;BME280;63762;51.334;22.108;2023-04-03T03:35:02;102091.05;;;0.88;79.51
75188;BME280;63762;51.334;22.108;2023-04-03T03:45:10;102093.73;;;0.87;80.12
75188;BME280;63762;51.334;22.108;2023-04-03T03:55:16;102100.14;;;0.74;79.49
75188;BME280;63762;51.334;22.108;2023-04-03T04:05:23;102095.80;;;0.70;78.34
75188;BME280;63762;51.334;22.108;2023-04-03T04:15:30;102105.48;;;0.71;77.54
75188;BME280;63762;51.334;22.108;2023-04-03T04:25:37;102111.70;;;0.70;77.11
75188;BME280;63762;51.334;22.108;2023-04-03T04:35:47;102126.83;;;0.62;75.21
75188;BME280;63762;51.334;22.108;2023-04-03T04:46:02;102124.27;;;0.56;75.87
75188;BME280;63762;51.334;22.108;2023-04-03T04:56:03;102126.09;;;0.54;74.92
75188;BME280;63762;51.334;22.108;2023-04-03T05:06:06;102137.73;;;0.44;74.24
75188;BME280;63762;51.334;22.108;2023-04-03T05:16:13;102156.88;;;0.59;74.29
75188;BME280;63762;51.334;22.108;2023-04-03T05:26:20;102173.04;;;0.41;73.13
75188;BME280;63762;51.334;22.108;2023-04-03T05:36:28;102174.70;;;0.47;73.02
75188;BME280;63762;51.334;22.108;2023-04-03T05:46:35;102171.97;;;0.53;72.86
75188;BME280;63762;51.334;22.108;2023-04-03T05:56:42;102200.00;;;0.66;73.01
75188;BME280;63762;51.334;22.108;2023-04-03T06:06:54;102201.86;;;0.61;72.00
75188;BME280;63762;51.334;22.108;2023-04-03T06:16:56;102202.86;;;0.54;72.53
75188;BME280;63762;51.334;22.108;2023-04-03T06:27:04;102204.66;;;0.50;71.06
75188;BME280;63762;51.334;22.108;2023-04-03T06:37:20;102209.03;;;0.53;70.84
75188;BME280;63762;51.334;22.108;2023-04-03T06:47:22;102223.09;;;0.58;69.42
75188;BME280;63762;51.334;22.108;2023-04-03T06:57:25;102234.18;;;0.82;71.24
75188;BME280;63762;51.334;22.108;2023-04-03T07:07:32;102243.48;;;1.07;68.32
75188;BME280;63762;51.334;22.108;2023-04-03T07:17:39;102250.35;;;1.19;68.27
75188;BME280;63762;51.334;22.108;2023-04-03T07:27:46;102249.54;;;1.64;67.32
75188;BME280;63762;51.334;22.108;2023-04-03T07:37:53;102282.23;;;1.63;64.84
75188;BME280;63762;51.334;22.108;2023-04-03T07:48:01;102286.59;;;1.68;63.19
75188;BME280;63762;51.334;22.108;2023-04-03T07:58:11;102288.73;;;1.94;63.29
75188;BME280;63762;51.334;22.108;2023-04-03T08:08:18;102303.05;;;1.85;61.19
75188;BME280;63762;51.334;22.108;2023-04-03T08:18:23;102305.90;;;1.75;61.56
75188;BME280;63762;51.334;22.108;2023-04-03T08:28:29;102315.75;;;2.14;62.25
75188;BME280;63762;51.334;22.108;2023-04-03T08:38:36;102336.93;;;2.17;61.02
75188;BME280;63762;51.334;22.108;2023-04-03T08:48:44;102342.00;;;2.29;59.12
75188;BME280;63762;51.334;22.108;2023-04-03T08:59:00;102341.94;;;2.32;56.75
75188;BME280;63762;51.334;22.108;2023-04-03T09:19:26;102329.88;;;2.59;58.03
75188;BME280;63762;51.334;22.108;2023-04-03T09:29:29;102341.92;;;2.75;55.86
75188;BME280;63762;51.334;22.108;2023-04-03T09:39:30;102339.73;;;2.93;54.91
75188;BME280;63762;51.334;22.108;2023-04-03T09:49:32;102350.05;;;3.07;54.81
75188;BME280;63762;51.334;22.108;2023-04-03T09:59:33;102340.21;;;3.47;54.14
75188;BME280;63762;51.334;22.108;2023-04-03T10:09:47;102344.11;;;3.67;53.92
75188;BME280;63762;51.334;22.108;2023-04-03T10:19:58;102358.40;;;3.28;54.07
75188;BME280;63762;51.334;22.108;2023-04-03T11:00:48;102355.13;;;4.19;50.12
75188;BME280;63762;51.334;22.108;2023-04-03T11:10:50;102369.41;;;4.17;49.70
75188;BME280;63762;51.334;22.108;2023-04-03T11:21:02;102365.48;;;3.98;51.19
75188;BME280;63762;51.334;22.108;2023-04-03T11:33:55;102372.11;;;4.15;49.97
75188;BME280;63762;51.334;22.108;2023-04-03T11:44:04;102358.80;;;4.15;51.05
75188;BME280;63762;51.334;22.108;2023-04-03T12:04:22;102376.33;;;3.90;50.39
75188;BME280;63762;51.334;22.108;2023-04-03T12:14:24;102368.73;;;4.09;48.20
75188;BME280;63762;51.334;22.108;2023-04-03T12:24:28;102367.58;;;3.85;49.17
75188;BME280;63762;51.334;22.108;2023-04-03T12:44:55;102356.29;;;4.41;49.23
75188;BME280;63762;51.334;22.108;2023-04-03T12:55:00;102363.97;;;4.21;47.52
75188;BME280;63762;51.334;22.108;2023-04-03T13:05:09;102372.39;;;4.05;47.64
75188;BME280;63762;51.334;22.108;2023-04-03T13:25:29;102358.59;;;4.23;46.83
75188;BME280;63762;51.334;22.108;2023-04-03T13:35:38;102362.54;;;4.69;48.15
75188;BME280;63762;51.334;22.108;2023-04-03T14:06:05;102359.56;;;5.63;43.58
75188;BME280;63762;51.334;22.108;2023-04-03T14:16:07;102362.41;;;5.31;44.47
75188;BME280;63762;51.334;22.108;2023-04-03T14:26:13;102358.88;;;5.03;46.28
75188;BME280;63762;51.334;22.108;2023-04-03T14:36:21;102358.89;;;5.30;43.81
75188;BME280;63762;51.334;22.108;2023-04-03T14:46:32;102358.09;;;5.27;44.39
75188;BME280;63762;51.334;22.108;2023-04-03T14:56:34;102359.87;;;4.99;43.60
75188;BME280;63762;51.334;22.108;2023-04-03T15:06:35;102366.17;;;4.67;45.21
75188;BME280;63762;51.334;22.108;2023-04-03T15:16:37;102352.80;;;4.68;47.17
75188;BME280;63762;51.334;22.108;2023-04-03T15:26:38;102359.71;;;4.45;46.14
75188;BME280;63762;51.334;22.108;2023-04-03T15:36:39;102348.37;;;4.38;45.91
75188;BME280;63762;51.334;22.108;2023-04-03T15:46:42;102354.67;;;4.36;48.12
75188;BME280;63762;51.334;22.108;2023-04-03T15:56:50;102344.13;;;4.31;46.44
75188;BME280;63762;51.334;22.108;2023-04-03T16:06:56;102353.55;;;4.12;48.74
75188;BME280;63762;51.334;22.108;2023-04-03T16:17:03;102358.19;;;4.04;48.09
75188;BME280;63762;51.334;22.108;2023-04-03T16:27:10;102361.86;;;4.00;48.95
75188;BME280;63762;51.334;22.108;2023-04-03T16:37:18;102366.18;;;4.04;49.09
75188;BME280;63762;51.334;22.108;2023-04-03T16:47:25;102373.35;;;4.02;50.21
75188;BME280;63762;51.334;22.108;2023-04-03T16:57:32;102374.13;;;4.06;49.92
75188;BME280;63762;51.334;22.108;2023-04-03T17:07:39;102384.32;;;3.90;48.86
75188;BME280;63762;51.334;22.108;2023-04-03T17:17:47;102397.26;;;3.70;51.01
75188;BME280;63762;51.334;22.108;2023-04-03T17:27:53;102408.05;;;3.64;51.74
75188;BME280;63762;51.334;22.108;2023-04-03T17:38:00;102408.38;;;3.51;52.13
75188;BME280;63762;51.334;22.108;2023-04-03T17:48:08;102409.51;;;3.41;52.29
75188;BME280;63762;51.334;22.108;2023-04-03T17:58:15;102419.63;;;3.25;51.85
75188;BME280;63762;51.334;22.108;2023-04-03T18:08:22;102424.20;;;3.19;52.86
75188;BME280;63762;51.334;22.108;2023-04-03T18:18:29;102435.52;;;3.28;52.61
75188;BME280;63762;51.334;22.108;2023-04-03T18:28:37;102435.98;;;3.07;53.07
75188;BME280;63762;51.334;22.108;2023-04-03T18:38:43;102451.80;;;3.13;52.36
75188;BME280;63762;51.334;22.108;2023-04-03T18:48:52;102444.75;;;3.12;52.90
75188;BME280;63762;51.334;22.108;2023-04-03T18:58:58;102458.16;;;3.06;52.78
75188;BME280;63762;51.334;22.108;2023-04-03T19:09:05;102457.38;;;3.01;53.22
75188;BME280;63762;51.334;22.108;2023-04-03T19:19:12;102454.62;;;3.06;53.59
75188;BME280;63762;51.334;22.108;2023-04-03T19:29:19;102463.58;;;3.02;54.75
75188;BME280;63762;51.334;22.108;2023-04-03T19:39:26;102463.80;;;2.91;55.12
75188;BME280;63762;51.334;22.108;2023-04-03T19:49:33;102472.87;;;2.81;55.89
75188;BME280;63762;51.334;22.108;2023-04-03T19:59:41;102466.70;;;2.79;55.12
75188;BME280;63762;51.334;22.108;2023-04-03T20:09:48;102476.48;;;2.79;55.41
75188;BME280;63762;51.334;22.108;2023-04-03T20:19:55;102475.70;;;2.72;55.22
75188;BME280;63762;51.334;22.108;2023-04-03T20:30:06;102458.96;;;2.69;55.19
75188;BME280;63762;51.334;22.108;2023-04-03T20:40:10;102459.86;;;2.66;55.85
75188;BME280;63762;51.334;22.108;2023-04-03T20:50:17;102461.70;;;2.64;56.43
75188;BME280;63762;51.334;22.108;2023-04-03T21:00:24;102471.41;;;2.65;56.51
75188;BME280;63762;51.334;22.108;2023-04-03T21:20:44;102465.45;;;2.54;56.69
75188;BME280;63762;51.334;22.108;2023-04-03T21:30:47;102454.13;;;2.43;56.63
75188;BME280;63762;51.334;22.108;2023-04-03T21:40:55;102449.09;;;2.29;57.36
75188;BME280;63762;51.334;22.108;2023-04-03T21:51:05;102453.47;;;2.32;57.51
75188;BME280;63762;51.334;22.108;2023-04-03T22:01:14;102456.21;;;2.26;57.38
75188;BME280;63762;51.334;22.108;2023-04-03T22:11:16;102448.42;;;2.17;57.90
75188;BME280;63762;51.334;22.108;2023-04-03T22:21:20;102449.44;;;2.10;58.28
75188;BME280;63762;51.334;22.108;2023-04-03T22:31:27;102430.34;;;1.90;58.48
75188;BME280;63762;51.334;22.108;2023-04-03T22:41:35;102434.78;;;1.88;58.78
75188;BME280;63762;51.334;22.108;2023-04-03T22:51:42;102424.13;;;1.89;58.81
75188;BME280;63762;51.334;22.108;2023-04-03T23:01:49;102431.45;;;1.77;59.95
75188;BME280;63762;51.334;22.108;2023-04-03T23:11:56;102421.07;;;1.62;60.36
75188;BME280;63762;51.334;22.108;2023-04-03T23:22:03;102440.72;;;1.49;60.29
75188;BME280;63762;51.334;22.108;2023-04-03T23:32:10;102431.04;;;1.46;60.43
75188;BME280;63762;51.334;22.108;2023-04-03T23:42:17;102412.71;;;1.31;61.34
75188;BME280;63762;51.334;22.108;2023-04-03T23:52:25;102384.48;;;1.29;62.30
